createdAt,value
2019-01-20T00:00:11.151Z,2.9
2019-01-20T00:01:01.744Z,2.9
2019-01-20T00:01:52.081Z,2.9
2019-01-20T00:02:42.145Z,2.9
2019-01-20T00:03:32.249Z,2.9
2019-01-20T00:04:21.706Z,2.9
2019-01-20T00:05:11.754Z,2.9
2019-01-20T00:06:02.424Z,2.9
2019-01-20T00:06:52.161Z,2.9
2019-01-20T00:07:42.487Z,2.9
2019-01-20T00:08:32.264Z,2.9
2019-01-20T00:09:22.318Z,2.9
2019-01-20T00:10:12.427Z,2.9
2019-01-20T00:11:02.706Z,2.9
2019-01-20T00:11:52.488Z,2.9
2019-01-20T00:12:42.876Z,2.9
2019-01-20T00:13:32.882Z,2.9
2019-01-20T00:14:22.938Z,2.9
2019-01-20T00:15:13.001Z,2.9
2019-01-20T00:16:02.505Z,2.9
2019-01-20T00:16:53.112Z,2.9
2019-01-20T00:17:42.626Z,2.9
2019-01-20T00:18:33.237Z,2.9
2019-01-20T00:19:23.302Z,2.9
2019-01-20T00:20:13.315Z,2.9
2019-01-20T00:21:03.440Z,2.9
2019-01-20T00:21:53.649Z,2.9
2019-01-20T00:22:43.232Z,2.9
2019-01-20T00:23:33.301Z,2.9
2019-01-20T00:24:23.070Z,2.9
2019-01-20T00:25:13.890Z,2.9
2019-01-20T00:26:03.760Z,2.9
2019-01-20T00:26:53.531Z,2.9
2019-01-20T00:27:43.852Z,2.9
2019-01-20T00:28:33.912Z,2.9
2019-01-20T00:29:23.972Z,2.9
2019-01-20T00:30:14.024Z,2.9
2019-01-20T00:31:03.811Z,2.9
2019-01-20T00:31:53.929Z,2.9
2019-01-20T00:32:43.697Z,2.9
2019-01-20T00:33:34.269Z,2.9
2019-01-20T00:34:24.682Z,2.9
2019-01-20T00:35:15.843Z,2.9
2019-01-20T00:36:04.430Z,2.9
2019-01-20T00:36:54.751Z,2.9
2019-01-20T00:37:44.542Z,2.8
2019-01-20T00:38:34.366Z,2.8
2019-01-20T00:39:24.379Z,2.8
2019-01-20T00:40:14.724Z,2.8
2019-01-20T00:41:04.776Z,2.8
2019-01-20T00:41:54.857Z,2.8
2019-01-20T00:42:44.334Z,2.8
2019-01-20T00:43:34.386Z,2.8
2019-01-20T00:44:24.171Z,2.8
2019-01-20T00:45:14.793Z,2.9
2019-01-20T00:46:04.846Z,2.8
2019-01-20T00:46:55.186Z,2.8
2019-01-20T00:47:44.968Z,2.8
2019-01-20T00:48:35.289Z,2.8
2019-01-20T00:49:25.068Z,2.8
2019-01-20T00:50:15.398Z,2.8
2019-01-20T00:51:05.170Z,2.8
2019-01-20T00:51:55.233Z,2.8
2019-01-20T00:52:45.579Z,2.8
2019-01-20T00:53:35.346Z,2.8
2019-01-20T00:54:25.406Z,2.8
2019-01-20T00:55:15.471Z,2.8
2019-01-20T00:56:05.557Z,2.8
2019-01-20T00:56:55.861Z,2.8
2019-01-20T00:57:45.982Z,2.8
2019-01-20T00:58:35.761Z,2.8
2019-01-20T00:59:25.200Z,2.8
2019-01-20T01:00:15.843Z,2.8
2019-01-20T01:01:05.885Z,2.8
2019-01-20T01:01:55.938Z,2.8
2019-01-20T01:02:46.483Z,2.8
2019-01-20T01:03:36.322Z,2.8
2019-01-20T01:04:26.123Z,2.8
2019-01-20T01:05:16.443Z,2.8
2019-01-20T01:06:06.504Z,2.8
2019-01-20T01:06:56.270Z,2.8
2019-01-20T01:07:46.343Z,2.8
2019-01-20T01:08:36.407Z,2.8
2019-01-20T01:09:26.462Z,2.8
2019-01-20T01:10:16.505Z,2.8
2019-01-20T01:11:06.832Z,2.8
2019-01-20T01:11:56.894Z,2.8
2019-01-20T01:12:46.964Z,2.8
2019-01-20T01:13:37.012Z,2.8
2019-01-20T01:14:26.597Z,2.8
2019-01-20T01:15:16.582Z,2.7
2019-01-20T01:16:06.629Z,2.8
2019-01-20T01:16:57.234Z,2.8
2019-01-20T01:17:47.334Z,2.7
2019-01-20T01:18:37.358Z,2.7
2019-01-20T01:19:27.423Z,2.8
2019-01-20T01:20:16.926Z,2.7
2019-01-20T01:21:07.249Z,2.7
2019-01-20T01:21:57.312Z,2.7
2019-01-20T01:22:47.642Z,2.7
2019-01-20T01:23:37.419Z,2.7
2019-01-20T01:24:27.759Z,2.7
2019-01-20T01:25:17.821Z,2.7
2019-01-20T01:26:07.866Z,2.7
2019-01-20T01:26:57.128Z,2.7
2019-01-20T01:27:47.701Z,2.7
2019-01-20T01:28:37.535Z,2.7
2019-01-20T01:29:28.101Z,2.6
2019-01-20T01:30:17.599Z,2.7
2019-01-20T01:31:07.673Z,2.7
2019-01-20T01:31:57.441Z,2.6
2019-01-20T01:32:48.066Z,2.7
2019-01-20T01:33:38.115Z,2.6
2019-01-20T01:34:28.435Z,2.6
2019-01-20T01:35:18.005Z,2.6
2019-01-20T01:36:08.283Z,2.6
2019-01-20T01:36:58.338Z,2.6
2019-01-20T01:37:48.671Z,2.6
2019-01-20T01:38:38.230Z,2.6
2019-01-20T01:39:28.820Z,2.6
2019-01-20T01:40:18.576Z,2.6
2019-01-20T01:41:08.345Z,2.6
2019-01-20T01:41:58.680Z,2.6
2019-01-20T01:42:49.010Z,2.6
2019-01-20T01:43:39.077Z,2.6
2019-01-20T01:44:28.852Z,2.6
2019-01-20T01:45:19.201Z,2.6
2019-01-20T01:46:09.235Z,2.6
2019-01-20T01:46:59.020Z,2.6
2019-01-20T01:47:48.790Z,2.6
2019-01-20T01:48:39.475Z,2.6
2019-01-20T01:49:28.907Z,2.6
2019-01-20T01:50:18.992Z,2.6
2019-01-20T01:51:09.309Z,2.6
2019-01-20T01:51:59.702Z,2.6
2019-01-20T01:52:49.155Z,2.6
2019-01-20T01:53:39.809Z,2.6
2019-01-20T01:54:29.537Z,2.6
2019-01-20T01:55:19.334Z,2.6
2019-01-20T01:56:09.648Z,2.6
2019-01-20T01:56:59.721Z,2.6
2019-01-20T01:57:49.221Z,2.6
2019-01-20T01:58:39.834Z,2.6
2019-01-20T01:59:29.889Z,2.6
2019-01-20T02:00:19.953Z,2.6
2019-01-20T02:01:10.277Z,2.6
2019-01-20T02:02:00.383Z,2.6
2019-01-20T02:02:50.401Z,2.6
2019-01-20T02:03:40.164Z,2.6
2019-01-20T02:04:30.511Z,2.6
2019-01-20T02:05:20.552Z,2.6
2019-01-20T02:06:10.343Z,2.6
2019-01-20T02:07:00.123Z,2.6
2019-01-20T02:07:50.730Z,2.6
2019-01-20T02:08:40.831Z,2.5
2019-01-20T02:09:30.896Z,2.5
2019-01-20T02:10:20.931Z,2.6
2019-01-20T02:11:10.139Z,2.6
2019-01-20T02:12:00.474Z,2.6
2019-01-20T02:12:51.091Z,2.6
2019-01-20T02:13:40.853Z,2.6
2019-01-20T02:14:30.913Z,2.6
2019-01-20T02:15:21.249Z,2.5
2019-01-20T02:16:10.467Z,2.5
2019-01-20T02:17:00.802Z,2.6
2019-01-20T02:17:51.152Z,2.5
2019-01-20T02:18:41.190Z,2.5
2019-01-20T02:19:30.973Z,2.5
2019-01-20T02:20:21.325Z,2.5
2019-01-20T02:21:11.707Z,2.5
2019-01-20T02:22:01.721Z,2.5
2019-01-20T02:22:51.495Z,2.5
2019-01-20T02:23:41.547Z,2.5
2019-01-20T02:24:31.594Z,2.5
2019-01-20T02:25:21.985Z,2.5
2019-01-20T02:26:12.045Z,2.5
2019-01-20T02:27:01.789Z,2.5
2019-01-20T02:27:51.834Z,2.5
2019-01-20T02:28:42.169Z,2.5
2019-01-20T02:29:31.671Z,2.5
2019-01-20T02:30:22.327Z,2.5
2019-01-20T02:31:12.367Z,2.5
2019-01-20T02:32:02.160Z,2.4
2019-01-20T02:32:52.243Z,2.5
2019-01-20T02:33:41.969Z,2.5
2019-01-20T02:34:32.309Z,2.4
2019-01-20T02:35:22.659Z,2.5
2019-01-20T02:36:12.424Z,2.4
2019-01-20T02:37:02.747Z,2.4
2019-01-20T02:37:52.585Z,2.4
2019-01-20T02:38:42.575Z,2.4
2019-01-20T02:39:32.641Z,2.4
2019-01-20T02:40:23.076Z,2.4
2019-01-20T02:41:12.771Z,2.4
2019-01-20T02:42:02.859Z,2.4
2019-01-20T02:42:52.636Z,2.4
2019-01-20T02:43:42.926Z,2.4
2019-01-20T02:44:33.269Z,2.4
2019-01-20T02:45:23.340Z,2.4
2019-01-20T02:46:13.377Z,2.4
2019-01-20T02:47:03.443Z,2.4
2019-01-20T02:47:53.486Z,2.4
2019-01-20T02:48:43.548Z,2.4
2019-01-20T02:49:33.626Z,2.4
2019-01-20T02:50:23.451Z,2.4
2019-01-20T02:51:13.745Z,2.4
2019-01-20T02:52:03.516Z,2.4
2019-01-20T02:52:53.633Z,2.4
2019-01-20T02:53:43.623Z,2.4
2019-01-20T02:54:33.972Z,2.4
2019-01-20T02:55:24.044Z,2.4
2019-01-20T02:56:13.773Z,2.4
2019-01-20T02:57:03.895Z,2.4
2019-01-20T02:57:53.698Z,2.4
2019-01-20T02:58:43.977Z,2.4
2019-01-20T02:59:33.758Z,2.4
2019-01-20T03:00:24.368Z,2.4
2019-01-20T03:01:14.140Z,2.4
2019-01-20T03:02:04.225Z,2.4
2019-01-20T03:02:54.542Z,2.4
2019-01-20T03:03:44.026Z,2.4
2019-01-20T03:04:34.385Z,2.4
2019-01-20T03:05:24.157Z,2.4
2019-01-20T03:08:38.782Z,2.3
2019-01-20T03:09:28.869Z,2.4
2019-01-20T03:10:18.932Z,2.4
2019-01-20T03:11:08.964Z,2.4
2019-01-20T03:12:06.007Z,2.4
2019-01-20T03:12:49.054Z,2.4
2019-01-20T03:13:39.119Z,2.3
2019-01-20T03:14:28.947Z,2.3
2019-01-20T03:15:18.971Z,2.3
2019-01-20T03:16:09.354Z,2.3
2019-01-20T03:16:59.117Z,2.3
2019-01-20T03:17:49.418Z,2.3
2019-01-20T03:18:39.462Z,2.3
2019-01-20T03:19:29.509Z,2.3
2019-01-20T03:20:19.301Z,2.3
2019-01-20T03:21:09.638Z,2.3
2019-01-20T03:21:59.429Z,2.3
2019-01-20T03:22:49.773Z,2.3
2019-01-20T03:23:39.540Z,2.3
2019-01-20T03:24:29.848Z,2.3
2019-01-20T03:25:19.927Z,2.3
2019-01-20T03:26:10.104Z,2.3
2019-01-20T03:27:00.044Z,2.3
2019-01-20T03:27:50.110Z,2.2
2019-01-20T03:28:40.143Z,2.2
2019-01-20T03:29:30.208Z,2.2
2019-01-20T03:30:20.136Z,2.2
2019-01-20T03:31:10.229Z,2.2
2019-01-20T03:32:00.449Z,2.2
2019-01-20T03:32:50.551Z,2.2
2019-01-20T03:33:40.558Z,2.1
2019-01-20T03:34:30.595Z,2.1
2019-01-20T03:35:20.702Z,2.1
2019-01-20T03:36:10.408Z,2.1
2019-01-20T03:37:00.738Z,2.1
2019-01-20T03:37:50.786Z,2.1
2019-01-20T03:38:40.820Z,2.1
2019-01-20T03:39:30.617Z,2.1
2019-01-20T03:40:20.938Z,2.1
2019-01-20T03:41:11.052Z,2.1
2019-01-20T03:42:01.070Z,2.1
2019-01-20T03:42:51.107Z,2.1
2019-01-20T03:43:41.195Z,2.1
2019-01-20T03:44:30.951Z,2
2019-01-20T03:45:21.365Z,2
2019-01-20T03:46:11.105Z,2
2019-01-20T03:47:01.410Z,2
2019-01-20T03:47:50.913Z,2
2019-01-20T03:48:41.553Z,2
2019-01-20T03:49:31.567Z,2
2019-01-20T03:50:21.632Z,2
2019-01-20T03:51:11.420Z,2
2019-01-20T03:52:01.734Z,1.9
2019-01-20T03:52:51.514Z,1.9
2019-01-20T03:53:41.591Z,1.9
2019-01-20T03:54:31.642Z,1.9
2019-01-20T03:55:21.496Z,1.9
2019-01-20T03:56:12.034Z,1.9
2019-01-20T03:57:01.521Z,1.9
2019-01-20T03:57:52.154Z,1.9
2019-01-20T03:58:42.186Z,1.9
2019-01-20T03:59:32.263Z,1.9
2019-01-20T04:00:22.050Z,1.9
2019-01-20T04:01:12.366Z,1.9
2019-01-20T04:02:02.415Z,1.9
2019-01-20T04:02:52.194Z,1.9
2019-01-20T04:03:42.582Z,1.9
2019-01-20T04:04:32.303Z,1.8
2019-01-20T04:05:22.661Z,1.8
2019-01-20T04:06:12.758Z,1.8
2019-01-20T04:07:02.769Z,1.9
2019-01-20T04:07:54.603Z,1.8
2019-01-20T04:08:42.877Z,1.8
2019-01-20T04:09:32.663Z,1.8
2019-01-20T04:10:23.003Z,1.8
2019-01-20T04:11:12.785Z,1.8
2019-01-20T04:12:03.115Z,1.8
2019-01-20T04:12:53.210Z,1.8
2019-01-20T04:13:42.678Z,1.8
2019-01-20T04:14:32.993Z,1.8
2019-01-20T04:15:23.352Z,1.8
2019-01-20T04:16:13.122Z,1.8
2019-01-20T04:17:03.438Z,1.8
2019-01-20T04:17:53.510Z,1.8
2019-01-20T04:18:43.302Z,1.8
2019-01-20T04:19:33.357Z,1.8
2019-01-20T04:20:23.418Z,1.8
2019-01-20T04:21:13.753Z,1.8
2019-01-20T04:22:03.782Z,1.8
2019-01-20T04:22:53.897Z,1.8
2019-01-20T04:23:43.907Z,1.8
2019-01-20T04:24:33.952Z,1.8
2019-01-20T04:25:24.170Z,1.8
2019-01-20T04:26:14.074Z,1.8
2019-01-20T04:27:03.864Z,1.8
2019-01-20T04:27:54.205Z,1.7
2019-01-20T04:28:44.277Z,1.8
2019-01-20T04:29:34.307Z,1.7
2019-01-20T04:30:24.372Z,1.7
2019-01-20T04:31:14.414Z,1.7
2019-01-20T04:32:04.211Z,1.7
2019-01-20T04:32:54.275Z,1.7
2019-01-20T04:33:44.614Z,1.7
2019-01-20T04:34:34.371Z,1.7
2019-01-20T04:35:24.805Z,1.8
2019-01-20T04:36:14.491Z,1.7
2019-01-20T04:37:04.871Z,1.7
2019-01-20T04:37:54.878Z,1.7
2019-01-20T04:38:44.944Z,1.7
2019-01-20T04:39:34.976Z,1.7
2019-01-20T04:40:24.483Z,1.7
2019-01-20T04:41:14.870Z,1.7
2019-01-20T04:42:05.168Z,1.6
2019-01-20T04:42:55.248Z,1.6
2019-01-20T04:43:45.281Z,1.7
2019-01-20T04:44:35.054Z,1.6
2019-01-20T04:45:25.123Z,1.6
2019-01-20T04:46:15.228Z,1.6
2019-01-20T04:47:05.508Z,1.6
2019-01-20T04:47:55.281Z,1.6
2019-01-20T04:48:45.343Z,1.6
2019-01-20T04:49:35.386Z,1.6
2019-01-20T04:50:25.786Z,1.6
2019-01-20T04:51:15.783Z,1.6
2019-01-20T04:52:05.579Z,1.6
2019-01-20T04:52:55.637Z,1.6
2019-01-20T04:53:45.713Z,1.6
2019-01-20T04:54:35.740Z,1.6
2019-01-20T04:55:26.058Z,1.6
2019-01-20T04:56:16.145Z,1.6
2019-01-20T04:57:05.941Z,1.5
2019-01-20T04:57:56.253Z,1.5
2019-01-20T04:58:46.036Z,1.5
2019-01-20T04:59:36.087Z,1.5
2019-01-20T05:00:26.427Z,1.5
2019-01-20T05:01:16.479Z,1.5
2019-01-20T05:02:06.262Z,1.5
2019-01-20T05:02:56.603Z,1.5
2019-01-20T05:03:46.094Z,1.5
2019-01-20T05:04:36.425Z,1.5
2019-01-20T05:05:26.767Z,1.5
2019-01-20T05:06:16.825Z,1.5
2019-01-20T05:07:06.874Z,1.5
2019-01-20T05:07:56.667Z,1.5
2019-01-20T05:08:46.702Z,1.5
2019-01-20T05:09:37.051Z,1.5
2019-01-20T05:10:27.136Z,1.5
2019-01-20T05:11:17.144Z,1.5
2019-01-20T05:12:06.935Z,1.5
2019-01-20T05:12:57.287Z,1.5
2019-01-20T05:13:47.349Z,1.5
2019-01-20T05:14:37.399Z,1.5
2019-01-20T05:15:27.461Z,1.5
2019-01-20T05:16:17.501Z,1.5
2019-01-20T05:17:07.549Z,1.5
2019-01-20T05:17:57.612Z,1.5
2019-01-20T05:18:47.658Z,1.5
2019-01-20T05:19:37.151Z,1.5
2019-01-20T05:20:27.511Z,1.5
2019-01-20T05:21:17.567Z,1.5
2019-01-20T05:22:07.618Z,1.5
2019-01-20T05:22:57.943Z,1.5
2019-01-20T05:23:48.015Z,1.5
2019-01-20T05:24:38.063Z,1.5
2019-01-20T05:25:28.137Z,1.5
2019-01-20T05:26:18.198Z,1.5
2019-01-20T05:27:08.278Z,1.5
2019-01-20T05:27:58.293Z,1.5
2019-01-20T05:28:48.080Z,1.5
2019-01-20T05:29:38.407Z,1.5
2019-01-20T05:30:28.464Z,1.4
2019-01-20T05:31:18.525Z,1.4
2019-01-20T05:32:08.630Z,1.5
2019-01-20T05:32:58.673Z,1.5
2019-01-20T05:33:48.690Z,1.5
2019-01-20T05:34:38.751Z,1.5
2019-01-20T05:35:28.560Z,1.5
2019-01-20T05:36:18.582Z,1.5
2019-01-20T05:37:08.926Z,1.5
2019-01-20T05:37:58.994Z,1.5
2019-01-20T05:38:49.062Z,1.5
2019-01-20T05:39:39.082Z,1.5
2019-01-20T05:40:29.178Z,1.5
2019-01-20T05:41:19.249Z,1.5
2019-01-20T05:42:09.273Z,1.5
2019-01-20T05:42:59.326Z,1.4
2019-01-20T05:43:49.089Z,1.5
2019-01-20T05:44:39.435Z,1.5
2019-01-20T05:45:29.205Z,1.5
2019-01-20T05:46:19.549Z,1.5
2019-01-20T05:47:09.330Z,1.4
2019-01-20T05:47:59.665Z,1.5
2019-01-20T05:48:49.706Z,1.5
2019-01-20T05:49:39.771Z,1.5
2019-01-20T05:50:29.839Z,1.5
2019-01-20T05:51:19.886Z,1.4
2019-01-20T05:52:09.666Z,1.5
2019-01-20T05:52:59.735Z,1.5
2019-01-20T05:53:50.050Z,1.5
2019-01-20T05:54:40.109Z,1.4
2019-01-20T05:55:30.183Z,1.4
2019-01-20T05:56:19.971Z,1.5
2019-01-20T05:57:10.281Z,1.4
2019-01-20T05:58:00.067Z,1.4
2019-01-20T05:58:50.394Z,1.4
2019-01-20T05:59:40.509Z,1.4
2019-01-20T06:00:30.551Z,1.5
2019-01-20T06:01:20.560Z,1.5
2019-01-20T06:02:10.669Z,1.5
2019-01-20T06:03:00.441Z,1.5
2019-01-20T06:03:50.481Z,1.5
2019-01-20T06:04:40.796Z,1.5
2019-01-20T06:06:38.058Z,1.5
2019-01-20T06:07:28.675Z,1.5
2019-01-20T06:08:18.458Z,1.6
2019-01-20T06:09:08.776Z,1.6
2019-01-20T06:09:58.838Z,1.6
2019-01-20T06:10:48.610Z,1.6
2019-01-20T06:11:38.667Z,1.6
2019-01-20T06:12:28.524Z,1.6
2019-01-20T06:13:18.517Z,1.6
2019-01-20T06:14:08.299Z,1.6
2019-01-20T06:14:58.930Z,1.6
2019-01-20T06:15:48.706Z,1.6
2019-01-20T06:16:39.296Z,1.6
2019-01-20T06:17:29.075Z,1.7
2019-01-20T06:18:19.431Z,1.7
2019-01-20T06:19:09.233Z,1.7
2019-01-20T06:19:59.239Z,1.7
2019-01-20T06:20:49.022Z,1.8
2019-01-20T06:21:39.352Z,1.8
2019-01-20T06:22:29.421Z,1.8
2019-01-20T06:23:19.747Z,1.8
2019-01-20T06:24:09.254Z,1.8
2019-01-20T06:24:59.032Z,1.8
2019-01-20T06:25:49.679Z,1.9
2019-01-20T06:26:39.691Z,1.9
2019-01-20T06:27:30.035Z,1.9
2019-01-20T06:28:20.089Z,1.9
2019-01-20T06:29:10.134Z,1.9
2019-01-20T06:29:59.919Z,1.9
2019-01-20T06:30:49.985Z,2
2019-01-20T06:31:40.099Z,2
2019-01-20T06:32:44.474Z,2
2019-01-20T06:33:20.446Z,2.1
2019-01-20T06:34:10.502Z,2.1
2019-01-20T06:35:00.290Z,2.1
2019-01-20T06:35:50.599Z,2.1
2019-01-20T06:36:40.130Z,2.1
2019-01-20T06:37:30.441Z,2.2
2019-01-20T06:38:20.499Z,2.2
2019-01-20T06:39:10.904Z,2.3
2019-01-20T06:40:00.676Z,2.3
2019-01-20T06:40:51.166Z,2.3
2019-01-20T06:41:41.004Z,2.3
2019-01-20T06:42:30.774Z,2.3
2019-01-20T06:43:20.844Z,2.4
2019-01-20T06:44:10.893Z,2.4
2019-01-20T06:45:01.308Z,2.4
2019-01-20T06:45:51.303Z,2.5
2019-01-20T06:46:41.343Z,2.4
2019-01-20T06:47:31.400Z,2.5
2019-01-20T06:48:21.698Z,2.5
2019-01-20T06:49:11.515Z,2.6
2019-01-20T06:50:01.038Z,2.6
2019-01-20T06:50:51.358Z,2.6
2019-01-20T06:51:41.427Z,2.6
2019-01-20T06:52:31.463Z,2.6
2019-01-20T06:53:21.530Z,2.7
2019-01-20T06:54:11.913Z,2.7
2019-01-20T06:55:01.927Z,2.8
2019-01-20T06:55:51.977Z,2.8
2019-01-20T06:56:41.475Z,2.8
2019-01-20T06:57:32.087Z,2.8
2019-01-20T06:58:21.871Z,2.9
2019-01-20T06:59:11.984Z,2.9
2019-01-20T07:00:02.061Z,2.9
2019-01-20T07:00:51.500Z,3
2019-01-20T07:01:42.087Z,3
2019-01-20T07:02:32.152Z,3.1
2019-01-20T07:03:22.222Z,3.1
2019-01-20T07:04:12.299Z,3.1
2019-01-20T07:06:38.274Z,3.3
2019-01-20T07:07:28.809Z,3.4
2019-01-20T07:08:47.709Z,3.4
2019-01-20T07:09:08.440Z,3.4
2019-01-20T07:09:58.777Z,3.5
2019-01-20T07:10:48.297Z,3.6
2019-01-20T07:11:38.057Z,3.7
2019-01-20T07:12:28.899Z,3.8
2019-01-20T07:13:19.019Z,3.8
2019-01-20T07:14:08.746Z,3.9
2019-01-20T07:14:59.119Z,4
2019-01-20T07:15:48.899Z,4.2
2019-01-20T07:16:39.240Z,4.3
2019-01-20T07:17:29.731Z,4.4
2019-01-20T07:18:19.343Z,4.4
2019-01-20T07:19:24.117Z,4.6
2019-01-20T07:19:59.462Z,4.8
2019-01-20T07:20:49.019Z,4.9
2019-01-20T07:21:39.301Z,5
2019-01-20T07:22:29.074Z,5.2
2019-01-20T07:23:19.603Z,5.3
2019-01-20T07:24:11.656Z,5.5
2019-01-20T07:24:59.853Z,5.7
2019-01-20T07:25:49.583Z,5.9
2019-01-20T07:26:39.973Z,6.1
2019-01-20T07:27:30.150Z,6.3
2019-01-20T07:28:19.758Z,6.5
2019-01-20T07:29:10.315Z,6.6
2019-01-20T07:29:59.916Z,6.8
2019-01-20T07:30:50.651Z,6.9
2019-01-20T07:31:40.045Z,7.1
2019-01-20T07:32:30.555Z,7.3
2019-01-20T07:33:20.658Z,7.4
2019-01-20T07:34:10.393Z,7.6
2019-01-20T07:35:00.246Z,7.7
2019-01-20T07:35:50.562Z,7.9
2019-01-20T07:36:40.644Z,7.9
2019-01-20T07:37:30.106Z,8.1
2019-01-20T07:38:20.447Z,8.2
2019-01-20T07:39:10.512Z,8.4
2019-01-20T07:40:00.925Z,8.5
2019-01-20T07:40:50.626Z,8.6
2019-01-20T07:41:41.000Z,8.8
2019-01-20T07:42:30.999Z,8.9
2019-01-20T07:43:21.072Z,9.1
2019-01-20T07:44:10.855Z,9.2
2019-01-20T07:45:00.672Z,9.3
2019-01-20T07:45:51.241Z,9.4
2019-01-20T07:46:41.008Z,9.4
2019-01-20T07:47:31.361Z,9.6
2019-01-20T07:48:21.419Z,9.7
2019-01-20T07:49:11.191Z,9.8
2019-01-20T07:50:01.463Z,9.9
2019-01-20T07:50:51.326Z,10
2019-01-20T07:51:41.104Z,10.1
2019-01-20T07:52:31.901Z,10.2
2019-01-20T07:53:21.483Z,10.3
2019-01-20T07:54:11.601Z,10.3
2019-01-20T07:55:01.326Z,10.4
2019-01-20T07:55:53.445Z,10.4
2019-01-20T07:56:41.981Z,10.5
2019-01-20T07:57:32.029Z,10.6
2019-01-20T07:58:22.087Z,10.7
2019-01-20T07:59:11.881Z,10.8
2019-01-20T08:00:01.926Z,10.9
2019-01-20T08:00:52.275Z,10.9
2019-01-20T08:01:42.338Z,11.1
2019-01-20T08:02:32.373Z,11.1
2019-01-20T08:03:22.429Z,11.2
2019-01-20T08:04:12.488Z,11.3
2019-01-20T08:05:02.369Z,11.3
2019-01-20T08:05:52.053Z,11.4
2019-01-20T08:06:42.403Z,11.4
2019-01-20T08:07:32.451Z,11.5
2019-01-20T08:08:22.507Z,11.6
2019-01-20T08:09:12.859Z,11.7
2019-01-20T08:10:02.902Z,11.8
2019-01-20T08:10:52.955Z,12
2019-01-20T08:11:43.347Z,12.1
2019-01-20T08:12:33.338Z,12.3
2019-01-20T08:13:26.884Z,12.5
2019-01-20T08:14:13.177Z,12.6
2019-01-20T08:15:03.225Z,12.8
2019-01-20T08:15:53.015Z,12.9
2019-01-20T08:16:43.149Z,13.1
2019-01-20T08:17:33.137Z,13.1
2019-01-20T08:18:23.182Z,13.3
2019-01-20T08:19:12.689Z,13.3
2019-01-20T08:20:03.605Z,13.4
2019-01-20T08:20:53.644Z,13.5
2019-01-20T08:21:43.438Z,13.6
2019-01-20T08:22:33.712Z,13.7
2019-01-20T08:23:23.799Z,13.7
2019-01-20T08:24:14.004Z,13.8
2019-01-20T08:25:03.958Z,13.8
2019-01-20T08:25:54.015Z,13.9
2019-01-20T08:26:44.034Z,13.9
2019-01-20T08:27:34.144Z,14
2019-01-20T08:28:23.884Z,14
2019-01-20T08:29:15.000Z,14.1
2019-01-20T08:30:04.279Z,14.2
2019-01-20T08:30:54.323Z,14.3
2019-01-20T08:31:44.119Z,14.4
2019-01-20T08:32:35.151Z,14.7
2019-01-20T08:33:23.971Z,14.8
2019-01-20T08:34:14.546Z,15
2019-01-20T08:35:04.323Z,15.1
2019-01-20T08:35:54.384Z,15.3
2019-01-20T08:36:44.781Z,15.3
2019-01-20T08:37:36.091Z,15.4
2019-01-20T08:38:24.581Z,15.5
2019-01-20T08:39:14.908Z,15.6
2019-01-20T08:40:04.689Z,15.7
2019-01-20T08:40:54.747Z,15.8
2019-01-20T08:41:45.070Z,15.9
2019-01-20T08:42:35.121Z,16.1
2019-01-20T08:43:32.748Z,16.2
2019-01-20T08:44:15.233Z,16.3
2019-01-20T08:45:20.001Z,16.4
2019-01-20T08:45:54.795Z,16.6
2019-01-20T08:46:45.142Z,16.7
2019-01-20T08:47:35.469Z,16.8
2019-01-20T08:48:24.972Z,16.9
2019-01-20T08:49:15.577Z,17.1
2019-01-20T08:50:05.635Z,17.2
2019-01-20T08:50:55.423Z,17.3
2019-01-20T08:51:45.473Z,17.4
2019-01-20T08:52:35.580Z,17.6
2019-01-20T08:53:25.595Z,17.8
2019-01-20T08:54:15.649Z,17.9
2019-01-20T08:55:05.721Z,18
2019-01-20T08:55:57.296Z,18.1
2019-01-20T08:56:46.315Z,18.3
2019-01-20T08:57:36.142Z,18.4
2019-01-20T08:59:15.980Z,18.9
2019-01-20T09:00:06.329Z,19.1
2019-01-20T09:00:55.829Z,19.4
2019-01-20T09:01:46.149Z,19.6
2019-01-20T09:02:36.214Z,19.9
2019-01-20T09:03:26.273Z,20.1
2019-01-20T09:04:16.344Z,20.3
2019-01-20T09:05:06.402Z,20.4
2019-01-20T09:05:56.504Z,20.6
2019-01-20T09:06:46.514Z,20.8
2019-01-20T09:07:36.852Z,20.9
2019-01-20T09:08:26.692Z,21.1
2019-01-20T09:09:16.681Z,21.3
2019-01-20T09:10:06.172Z,21.5
2019-01-20T09:10:57.079Z,21.7
2019-01-20T09:11:46.853Z,21.8
2019-01-20T09:12:36.706Z,21.8
2019-01-20T09:13:41.423Z,21.8
2019-01-20T09:14:17.106Z,21.8
2019-01-20T09:15:07.091Z,21.8
2019-01-20T09:15:57.151Z,21.9
2019-01-20T09:16:47.481Z,21.9
2019-01-20T09:17:37.245Z,21.9
2019-01-20T09:18:42.243Z,22
2019-01-20T09:19:17.096Z,22.1
2019-01-20T09:20:07.941Z,22.2
2019-01-20T09:20:57.505Z,22.3
2019-01-20T09:21:47.884Z,22.4
2019-01-20T09:22:37.603Z,22.4
2019-01-20T09:23:27.940Z,22.5
2019-01-20T09:24:18.050Z,22.6
2019-01-20T09:25:07.758Z,22.6
2019-01-20T09:25:58.103Z,22.7
2019-01-20T09:26:47.880Z,22.6
2019-01-20T09:27:37.935Z,22.6
2019-01-20T09:28:27.995Z,22.7
2019-01-20T09:29:18.335Z,22.6
2019-01-20T09:30:08.119Z,22.6
2019-01-20T09:30:57.886Z,22.6
2019-01-20T09:31:48.517Z,22.6
2019-01-20T09:32:38.572Z,22.5
2019-01-20T09:33:28.605Z,22.4
2019-01-20T09:34:18.387Z,22.4
2019-01-20T09:35:08.732Z,22.4
2019-01-20T09:35:58.509Z,22.6
2019-01-20T09:36:48.866Z,22.6
2019-01-20T09:37:38.935Z,22.7
2019-01-20T09:38:28.959Z,22.8
2019-01-20T09:39:19.014Z,22.8
2019-01-20T09:40:08.792Z,22.7
2019-01-20T09:40:59.136Z,22.6
2019-01-20T09:41:48.952Z,22.5
2019-01-20T09:42:39.992Z,22.3
2019-01-20T09:43:28.760Z,22.2
2019-01-20T09:44:19.077Z,22.1
2019-01-20T09:45:09.406Z,21.9
2019-01-20T09:45:59.251Z,21.8
2019-01-20T09:46:49.237Z,21.8
2019-01-20T09:47:40.775Z,21.6
2019-01-20T09:48:29.626Z,21.5
2019-01-20T09:49:19.727Z,21.4
2019-01-20T09:50:09.736Z,21.4
2019-01-20T09:50:59.524Z,21.3
2019-01-20T09:51:49.569Z,21.3
2019-01-20T09:52:39.914Z,21.2
2019-01-20T09:53:29.433Z,21.2
2019-01-20T09:54:20.032Z,21.3
2019-01-20T09:55:10.144Z,21.3
2019-01-20T09:55:59.901Z,21.2
2019-01-20T09:56:49.358Z,21.2
2019-01-20T09:57:39.969Z,21.2
2019-01-20T10:00:10.418Z,21
2019-01-20T10:00:59.726Z,21
2019-01-20T10:01:50.254Z,20.9
2019-01-20T10:02:40.311Z,20.9
2019-01-20T10:03:30.078Z,20.8
2019-01-20T10:04:20.701Z,20.8
2019-01-20T10:05:10.547Z,20.8
2019-01-20T10:07:38.415Z,20.5
2019-01-20T10:08:28.472Z,20.4
2019-01-20T10:09:18.540Z,20.3
2019-01-20T10:10:08.587Z,20.1
2019-01-20T10:10:58.170Z,20.1
2019-01-20T10:11:48.718Z,19.9
2019-01-20T10:12:38.770Z,19.9
2019-01-20T10:13:28.552Z,19.9
2019-01-20T10:14:18.893Z,19.8
2019-01-20T10:15:08.930Z,19.6
2019-01-20T10:15:58.994Z,19.6
2019-01-20T10:16:49.047Z,19.5
2019-01-20T10:17:39.113Z,19.4
2019-01-20T10:18:28.895Z,19.3
2019-01-20T10:19:19.218Z,19.2
2019-01-20T10:20:09.257Z,19.1
2019-01-20T10:20:59.332Z,19
2019-01-20T10:21:49.442Z,18.9
2019-01-20T10:22:38.886Z,18.9
2019-01-20T10:23:29.491Z,18.8
2019-01-20T10:24:19.281Z,18.8
2019-01-20T10:25:16.956Z,18.6
2019-01-20T10:25:59.389Z,18.5
2019-01-20T10:26:49.459Z,18.4
2019-01-20T10:27:39.784Z,18.4
2019-01-20T10:28:29.849Z,18.3
2019-01-20T10:29:19.901Z,18.2
2019-01-20T10:30:09.186Z,18.1
2019-01-20T10:30:59.741Z,18.1
2019-01-20T10:31:50.081Z,18
2019-01-20T10:32:40.131Z,17.9
2019-01-20T10:33:30.191Z,18
2019-01-20T10:34:20.234Z,17.9
2019-01-20T10:35:10.278Z,17.9
2019-01-20T10:36:00.347Z,17.9
2019-01-20T10:36:50.403Z,18
2019-01-20T10:37:40.465Z,18.1
2019-01-20T10:38:30.558Z,18.1
2019-01-20T10:39:20.343Z,18.1
2019-01-20T10:40:10.621Z,18.2
2019-01-20T10:41:00.701Z,18.3
2019-01-20T10:41:50.748Z,18.3
2019-01-20T10:42:40.843Z,18.4
2019-01-20T10:43:30.865Z,18.4
2019-01-20T10:44:20.908Z,18.5
2019-01-20T10:45:11.021Z,18.5
2019-01-20T10:46:01.033Z,18.6
2019-01-20T10:46:51.088Z,18.6
2019-01-20T10:47:40.879Z,18.5
2019-01-20T10:48:30.967Z,18.6
2019-01-20T10:49:20.970Z,18.6
2019-01-20T10:50:10.838Z,18.6
2019-01-20T10:51:01.095Z,18.9
2019-01-20T10:51:50.860Z,19.1
2019-01-20T10:52:41.203Z,19.4
2019-01-20T10:53:31.259Z,20.1
2019-01-20T10:54:21.589Z,21.1
2019-01-20T10:55:11.655Z,22.3
2019-01-20T10:56:01.710Z,23.9
2019-01-20T10:56:51.759Z,25.9
2019-01-20T10:57:41.539Z,28.1
2019-01-20T10:58:31.602Z,30.5
2019-01-20T10:59:21.937Z,32.6
2019-01-20T11:00:11.717Z,34.4
2019-01-20T11:01:01.829Z,36
2019-01-20T11:01:52.119Z,37.7
2019-01-20T11:02:42.202Z,39.4
2019-01-20T11:03:31.954Z,41.4
2019-01-20T11:04:21.997Z,43.4
2019-01-20T11:05:12.349Z,45.4
2019-01-20T11:06:02.434Z,47.8
2019-01-20T11:06:52.179Z,49
2019-01-20T11:07:42.236Z,50.6
2019-01-20T11:08:32.569Z,52.1
2019-01-20T11:09:22.623Z,53.8
2019-01-20T11:10:12.719Z,55.2
2019-01-20T11:11:02.754Z,56.2
2019-01-20T11:11:52.793Z,56.9
2019-01-20T11:12:43.546Z,57.3
2019-01-20T11:13:32.911Z,57.4
2019-01-20T11:14:22.963Z,57.5
2019-01-20T11:15:13.018Z,57.3
2019-01-20T11:16:03.081Z,57.1
2019-01-20T11:16:53.140Z,56.9
2019-01-20T11:17:43.198Z,57.1
2019-01-20T11:18:33.236Z,57.1
2019-01-20T11:19:23.356Z,57.3
2019-01-20T11:21:03.137Z,58.6
2019-01-20T11:21:53.481Z,59.5
2019-01-20T11:22:43.256Z,60.1
2019-01-20T11:23:33.592Z,60.2
2019-01-20T11:24:23.646Z,60.4
2019-01-20T11:25:13.696Z,60.6
2019-01-20T11:26:03.767Z,60.8
2019-01-20T11:26:53.262Z,61.3
2019-01-20T11:27:43.875Z,61.6
2019-01-20T11:28:33.380Z,61.9
2019-01-20T11:29:23.982Z,61.8
2019-01-20T11:30:14.052Z,61.5
2019-01-20T11:31:03.834Z,61.2
2019-01-20T11:31:54.152Z,60.9
2019-01-20T11:32:44.942Z,60.3
2019-01-20T11:33:33.992Z,60.1